This is the latest recevied weather packets stored in our database for station/object KB1PVH-13. If no packets are shown the sender has not sent any weather packets the latest 10 day(s).
| Time | Temp. | Humidity | Pressure | Rain* | Wind** | Luminosity | Snow |
|---|---|---|---|---|---|---|---|
| 1777693516 | 10° C | 61% | 928 hPa | 0 mm | - | - | - |
| 1777686917 | 8.33° C | 59% | 927.6 hPa | 0 mm | - | - | - |
| 1777686317 | 8.33° C | 57% | 927.7 hPa | 0 mm | - | - | - |
| 1777685737 | 8.89° C | 57% | 927.5 hPa | 0 mm | - | - | - |
| 1777684517 | 9.44° C | 56% | 927.4 hPa | 0 mm | - | - | - |
| 1777681537 | 11.11° C | 48% | 926.9 hPa | 0 mm | - | - | - |
| 1777680917 | 11.67° C | 50% | 926.9 hPa | 0 mm | - | - | - |
| 1777680317 | 12.22° C | 44% | 926.4 hPa | 0 mm | - | - | - |
| 1777678538 | 13.89° C | 38% | 926.1 hPa | 0 mm | - | - | - |
| 1777677957 | 13.89° C | 36% | 925.9 hPa | 0 mm | - | - | - |
| 1777677317 | 14.44° C | 37% | 925.7 hPa | 0 mm | - | - | - |
| 1777676717 | 14.44° C | 36% | 925.6 hPa | 0 mm | - | - | - |
| 1777674917 | 16.11° C | 31% | 925.5 hPa | 0 mm | - | - | - |
| 1777668917 | 18.89° C | 27% | 925 hPa | 0 mm | - | - | - |
| 1777664137 | 17.78° C | 31% | 925.1 hPa | 0 mm | - | - | - |
| 1777663518 | 18.33° C | 33% | 925 hPa | 0 mm | - | - | - |
| 1777658737 | 17.22° C | 38% | 925.6 hPa | 0 mm | - | - | - |
| 1777652716 | 15° C | 43% | 926 hPa | 0 mm | - | - | - |
| 1777652116 | 14.44° C | 44% | 926.3 hPa | 0 mm | - | - | - |
| 1777651018 | 13.89° C | 48% | 926.4 hPa | 0 mm | - | - | - |
| 1777645817 | 11.67° C | 57% | 926.8 hPa | 0 mm | - | - | - |
| 1777645216 | 11.67° C | 57% | 926.9 hPa | 0 mm | - | - | - |
| 1777644016 | 12.22° C | 57% | 926.7 hPa | 0 mm | - | - | - |
| 1777643416 | 11.11° C | 58% | 926.7 hPa | 0 mm | - | - | - |
| 1777639816 | 11.67° C | 55% | 926.5 hPa | 0 mm | - | - | - |
* Rain latest hour (hover to see other rain measurements)
** Current wind speed in m/s (hover to see current wind gust speed)